sensor_id;sensor_type;location;lat;lon;timestamp;pressure;altitude;pressure_sealevel;temperature;humidity
45467;BME280;31212;49.734;8.490;2023-04-03T00:02:15;101323.28;;;1.82;78.43
45467;BME280;31212;49.734;8.490;2023-04-03T00:04:41;101309.56;;;1.82;78.50
45467;BME280;31212;49.734;8.490;2023-04-03T00:07:08;101306.94;;;1.80;78.72
45467;BME280;31212;49.734;8.490;2023-04-03T00:09:34;101314.94;;;1.70;78.80
45467;BME280;31212;49.734;8.490;2023-04-03T00:12:02;101323.84;;;1.62;78.89
45467;BME280;31212;49.734;8.490;2023-04-03T00:14:29;101346.03;;;1.61;79.50
45467;BME280;31212;49.734;8.490;2023-04-03T00:16:55;101353.78;;;1.63;79.52
45467;BME280;31212;49.734;8.490;2023-04-03T00:19:22;101358.47;;;1.55;79.78
45467;BME280;31212;49.734;8.490;2023-04-03T00:21:48;101368.47;;;1.50;79.76
45467;BME280;31212;49.734;8.490;2023-04-03T00:24:15;101383.81;;;1.50;80.17
45467;BME280;31212;49.734;8.490;2023-04-03T00:26:42;101385.78;;;1.40;80.42
45467;BME280;31212;49.734;8.490;2023-04-03T00:29:09;101397.88;;;1.42;80.43
45467;BME280;31212;49.734;8.490;2023-04-03T00:31:37;101395.41;;;1.29;81.10
45467;BME280;31212;49.734;8.490;2023-04-03T00:34:03;101396.19;;;1.28;80.95
45467;BME280;31212;49.734;8.490;2023-04-03T00:36:30;101398.22;;;1.18;81.19
45467;BME280;31212;49.734;8.490;2023-04-03T00:38:56;101416.34;;;1.22;81.65
45467;BME280;31212;49.734;8.490;2023-04-03T00:41:23;101430.88;;;1.23;81.94
45467;BME280;31212;49.734;8.490;2023-04-03T00:43:50;101431.47;;;1.18;81.90
45467;BME280;31212;49.734;8.490;2023-04-03T00:46:18;101442.25;;;1.13;82.36
45467;BME280;31212;49.734;8.490;2023-04-03T00:48:47;101455.13;;;1.14;82.30
45467;BME280;31212;49.734;8.490;2023-04-03T00:51:18;101450.28;;;1.04;82.58
45467;BME280;31212;49.734;8.490;2023-04-03T00:53:49;101462.44;;;1.08;82.75
45467;BME280;31212;49.734;8.490;2023-04-03T00:56:19;101469.75;;;1.02;82.95
45467;BME280;31212;49.734;8.490;2023-04-03T00:58:50;101460.13;;;0.98;82.82
45467;BME280;31212;49.734;8.490;2023-04-03T01:01:22;101459.97;;;0.95;83.36
45467;BME280;31212;49.734;8.490;2023-04-03T01:03:50;101458.28;;;0.95;83.23
45467;BME280;31212;49.734;8.490;2023-04-03T01:06:20;101466.47;;;0.90;83.45
45467;BME280;31212;49.734;8.490;2023-04-03T01:08:49;101463.75;;;0.87;83.44
45467;BME280;31212;49.734;8.490;2023-04-03T01:11:16;101473.06;;;0.86;83.75
45467;BME280;31212;49.734;8.490;2023-04-03T01:13:43;101472.81;;;0.81;83.59
45467;BME280;31212;49.734;8.490;2023-04-03T01:16:10;101481.03;;;0.91;84.16
45467;BME280;31212;49.734;8.490;2023-04-03T01:18:39;101460.50;;;1.04;83.33
45467;BME280;31212;49.734;8.490;2023-04-03T01:21:37;101446.41;;;0.96;83.24
45467;BME280;31212;49.734;8.490;2023-04-03T01:24:21;101448.31;;;0.85;83.40
45467;BME280;31212;49.734;8.490;2023-04-03T01:26:49;101455.09;;;0.84;83.43
45467;BME280;31212;49.734;8.490;2023-04-03T01:29:16;101458.06;;;0.77;83.75
45467;BME280;31212;49.734;8.490;2023-04-03T01:31:52;101478.31;;;0.74;84.19
45467;BME280;31212;49.734;8.490;2023-04-03T01:34:20;101486.97;;;0.76;84.50
45467;BME280;31212;49.734;8.490;2023-04-03T01:36:46;101495.50;;;0.77;84.19
45467;BME280;31212;49.734;8.490;2023-04-03T01:39:13;101492.69;;;0.72;84.63
45467;BME280;31212;49.734;8.490;2023-04-03T01:41:40;101505.47;;;0.72;84.96
45467;BME280;31212;49.734;8.490;2023-04-03T01:44:13;101510.88;;;0.63;85.23
45467;BME280;31212;49.734;8.490;2023-04-03T01:46:40;101523.66;;;0.63;85.31
45467;BME280;31212;49.734;8.490;2023-04-03T01:49:09;101529.81;;;0.52;85.39
45467;BME280;31212;49.734;8.490;2023-04-03T01:51:35;101527.84;;;0.48;86.06
45467;BME280;31212;49.734;8.490;2023-04-03T01:54:02;101548.28;;;0.48;86.13
45467;BME280;31212;49.734;8.490;2023-04-03T01:56:29;101549.75;;;0.44;86.50
45467;BME280;31212;49.734;8.490;2023-04-03T01:58:56;101552.22;;;0.43;86.86
45467;BME280;31212;49.734;8.490;2023-04-03T02:01:22;101555.38;;;0.39;87.10
45467;BME280;31212;49.734;8.490;2023-04-03T02:03:50;101552.31;;;0.44;87.01
45467;BME280;31212;49.734;8.490;2023-04-03T02:06:18;101551.63;;;0.47;86.97
45467;BME280;31212;49.734;8.490;2023-04-03T02:08:45;101547.88;;;0.42;87.27
45467;BME280;31212;49.734;8.490;2023-04-03T02:11:11;101547.72;;;0.39;87.29
45467;BME280;31212;49.734;8.490;2023-04-03T02:13:38;101560.19;;;0.34;87.55
45467;BME280;31212;49.734;8.490;2023-04-03T02:16:08;101554.78;;;0.29;87.41
45467;BME280;31212;49.734;8.490;2023-04-03T02:18:36;101556.06;;;0.23;87.83
45467;BME280;31212;49.734;8.490;2023-04-03T02:21:03;101567.38;;;0.26;88.01
45467;BME280;31212;49.734;8.490;2023-04-03T02:23:31;101566.69;;;0.29;88.02
45467;BME280;31212;49.734;8.490;2023-04-03T02:26:06;101563.72;;;0.23;88.43
45467;BME280;31212;49.734;8.490;2023-04-03T02:28:33;101567.09;;;0.22;88.44
45467;BME280;31212;49.734;8.490;2023-04-03T02:30:59;101571.59;;;0.12;88.72
45467;BME280;31212;49.734;8.490;2023-04-03T02:33:26;101577.59;;;0.13;88.89
45467;BME280;31212;49.734;8.490;2023-04-03T02:35:53;101568.66;;;0.06;89.00
45467;BME280;31212;49.734;8.490;2023-04-03T02:38:21;101582.41;;;0.08;89.13
45467;BME280;31212;49.734;8.490;2023-04-03T02:40:50;101571.59;;;-0.01;89.11
45467;BME280;31212;49.734;8.490;2023-04-03T02:43:17;101575.94;;;0.00;89.35
45467;BME280;31212;49.734;8.490;2023-04-03T02:45:44;101573.75;;;0.06;89.14
45467;BME280;31212;49.734;8.490;2023-04-03T02:48:10;101570.81;;;0.13;88.93
45467;BME280;31212;49.734;8.490;2023-04-03T02:50:37;101568.75;;;0.08;88.98
45467;BME280;31212;49.734;8.490;2023-04-03T02:53:03;101566.97;;;0.07;88.93
45467;BME280;31212;49.734;8.490;2023-04-03T05:48:52;101674.53;;;0.11;96.65
45467;BME280;31212;49.734;8.490;2023-04-03T05:51:23;101667.56;;;0.22;95.90
45467;BME280;31212;49.734;8.490;2023-04-03T05:53:58;101675.34;;;0.37;95.69
45467;BME280;31212;49.734;8.490;2023-04-03T05:56:29;101670.44;;;0.54;95.20
45467;BME280;31212;49.734;8.490;2023-04-03T05:58:56;101663.44;;;0.64;94.73
45467;BME280;31212;49.734;8.490;2023-04-03T06:01:23;101660.88;;;0.78;94.38
45467;BME280;31212;49.734;8.490;2023-04-03T06:03:49;101658.00;;;1.00;93.83
45467;BME280;31212;49.734;8.490;2023-04-03T06:06:18;101649.78;;;1.47;92.37
45467;BME280;31212;49.734;8.490;2023-04-03T06:08:45;101637.22;;;1.95;91.13
45467;BME280;31212;49.734;8.490;2023-04-03T06:11:11;101611.44;;;2.53;89.17
45467;BME280;31212;49.734;8.490;2023-04-03T06:13:38;101574.88;;;2.73;87.24
45467;BME280;31212;49.734;8.490;2023-04-03T06:16:05;101531.47;;;2.76;86.24
45467;BME280;31212;49.734;8.490;2023-04-03T06:18:31;101511.16;;;2.47;85.53
45467;BME280;31212;49.734;8.490;2023-04-03T06:20:58;101493.50;;;2.21;84.72
45467;BME280;31212;49.734;8.490;2023-04-03T06:23:27;101500.59;;;2.10;85.17
45467;BME280;31212;49.734;8.490;2023-04-03T06:25:54;101507.75;;;2.00;85.20
45467;BME280;31212;49.734;8.490;2023-04-03T06:28:20;101513.69;;;1.84;85.48
45467;BME280;31212;49.734;8.490;2023-04-03T06:30:47;101522.63;;;1.76;85.58
45467;BME280;31212;49.734;8.490;2023-04-03T06:33:13;101537.81;;;1.88;85.55
45467;BME280;31212;49.734;8.490;2023-04-03T06:35:40;101552.53;;;2.07;85.58
45467;BME280;31212;49.734;8.490;2023-04-03T06:38:06;101566.31;;;2.09;85.96
45467;BME280;31212;49.734;8.490;2023-04-03T06:40:36;101563.00;;;2.58;85.15
45467;BME280;31212;49.734;8.490;2023-04-03T06:43:03;101538.78;;;2.53;84.86
45467;BME280;31212;49.734;8.490;2023-04-03T06:45:30;101529.97;;;2.48;84.31
45467;BME280;31212;49.734;8.490;2023-04-03T06:47:56;101520.56;;;2.63;83.91
45467;BME280;31212;49.734;8.490;2023-04-03T06:50:23;101519.03;;;2.67;84.21
45467;BME280;31212;49.734;8.490;2023-04-03T06:52:49;101509.97;;;2.74;83.89
45467;BME280;31212;49.734;8.490;2023-04-03T06:55:16;101491.78;;;2.85;83.23
45467;BME280;31212;49.734;8.490;2023-04-03T06:57:44;101473.97;;;2.89;82.60
45467;BME280;31212;49.734;8.490;2023-04-03T07:00:11;101473.06;;;3.21;81.83
45467;BME280;31212;49.734;8.490;2023-04-03T07:02:38;101445.84;;;3.07;81.30
45467;BME280;31212;49.734;8.490;2023-04-03T07:05:06;101440.72;;;3.07;81.52
45467;BME280;31212;49.734;8.490;2023-04-03T07:07:32;101440.22;;;3.32;80.64
45467;BME280;31212;49.734;8.490;2023-04-03T07:09:59;101404.41;;;3.33;80.00
45467;BME280;31212;49.734;8.490;2023-04-03T07:12:25;101397.50;;;3.50;79.35
45467;BME280;31212;49.734;8.490;2023-04-03T07:14:53;101372.13;;;3.94;78.33
45467;BME280;31212;49.734;8.490;2023-04-03T07:17:20;101328.75;;;5.24;76.24
45467;BME280;31212;49.734;8.490;2023-04-03T07:19:46;101202.22;;;6.09;72.61
45467;BME280;31212;49.734;8.490;2023-04-03T07:22:13;101109.06;;;5.98;70.65
45467;BME280;31212;49.734;8.490;2023-04-03T07:24:39;101083.88;;;6.16;69.95
45467;BME280;31212;49.734;8.490;2023-04-03T07:27:06;101033.03;;;5.85;69.07
45467;BME280;31212;49.734;8.490;2023-04-03T07:29:33;101001.88;;;6.62;67.32
45467;BME280;31212;49.734;8.490;2023-04-03T07:32:01;101013.44;;;6.75;67.52
45467;BME280;31212;49.734;8.490;2023-04-03T07:34:28;100961.53;;;6.64;66.53
45467;BME280;31212;49.734;8.490;2023-04-03T07:36:55;100968.38;;;6.94;65.74
45467;BME280;31212;49.734;8.490;2023-04-03T07:39:23;100933.13;;;6.63;64.66
45467;BME280;31212;49.734;8.490;2023-04-03T07:41:49;100863.22;;;6.53;63.50
45467;BME280;31212;49.734;8.490;2023-04-03T07:44:16;100869.97;;;7.53;63.21
45467;BME280;31212;49.734;8.490;2023-04-03T07:46:42;100803.22;;;7.34;61.36
45467;BME280;31212;49.734;8.490;2023-04-03T07:49:10;100811.16;;;7.05;61.55
45467;BME280;31212;49.734;8.490;2023-04-03T07:51:37;100836.78;;;7.72;61.38
45467;BME280;31212;49.734;8.490;2023-04-03T07:54:03;100773.69;;;8.05;60.16
45467;BME280;31212;49.734;8.490;2023-04-03T07:56:30;100714.84;;;8.42;58.07
45467;BME280;31212;49.734;8.490;2023-04-03T07:58:57;100691.13;;;9.24;56.97
45467;BME280;31212;49.734;8.490;2023-04-03T08:01:23;100604.88;;;8.67;56.37
45467;BME280;31212;49.734;8.490;2023-04-03T08:03:50;100559.47;;;8.92;54.52
45467;BME280;31212;49.734;8.490;2023-04-03T08:06:17;100545.66;;;8.92;54.23
45467;BME280;31212;49.734;8.490;2023-04-03T08:08:44;100556.34;;;9.21;53.55
45467;BME280;31212;49.734;8.490;2023-04-03T08:11:11;100577.63;;;9.74;53.73
45467;BME280;31212;49.734;8.490;2023-04-03T08:13:38;100597.03;;;10.21;52.60
45467;BME280;31212;49.734;8.490;2023-04-03T08:16:09;100430.03;;;10.05;50.25
45467;BME280;31212;49.734;8.490;2023-04-03T08:18:36;100410.13;;;10.02;49.49
45467;BME280;31212;49.734;8.490;2023-04-03T08:21:06;100412.53;;;9.70;49.88
45467;BME280;31212;49.734;8.490;2023-04-03T08:23:34;100388.88;;;9.25;49.62
45467;BME280;31212;49.734;8.490;2023-04-03T08:26:06;100373.16;;;9.02;49.24
45467;BME280;31212;49.734;8.490;2023-04-03T08:28:33;100447.66;;;9.32;50.19
45467;BME280;31212;49.734;8.490;2023-04-03T08:31:03;100486.19;;;10.01;49.64
45467;BME280;31212;49.734;8.490;2023-04-03T08:33:29;100402.03;;;9.50;49.14
45467;BME280;31212;49.734;8.490;2023-04-03T08:35:56;100469.72;;;9.90;49.13
45467;BME280;31212;49.734;8.490;2023-04-03T08:38:22;100478.00;;;10.83;48.63
45467;BME280;31212;49.734;8.490;2023-04-03T08:41:02;100309.94;;;10.34;47.11
45467;BME280;31212;49.734;8.490;2023-04-03T08:43:35;100439.75;;;10.35;48.28
45467;BME280;31212;49.734;8.490;2023-04-03T08:46:05;100247.47;;;9.66;46.15
45467;BME280;31212;49.734;8.490;2023-04-03T08:48:41;100295.31;;;10.70;46.10
45467;BME280;31212;49.734;8.490;2023-04-03T08:51:11;100232.16;;;10.99;44.48
45467;BME280;31212;49.734;8.490;2023-04-03T08:53:42;100245.91;;;10.19;45.73
45467;BME280;31212;49.734;8.490;2023-04-03T08:56:15;100303.13;;;10.98;44.95
45467;BME280;31212;49.734;8.490;2023-04-03T08:58:47;100307.31;;;11.77;43.68
45467;BME280;31212;49.734;8.490;2023-04-03T09:01:19;100179.00;;;11.78;42.34
45467;BME280;31212;49.734;8.490;2023-04-03T09:03:46;100235.56;;;11.10;43.60
45467;BME280;31212;49.734;8.490;2023-04-03T09:06:14;100244.03;;;11.74;43.12
45467;BME280;31212;49.734;8.490;2023-04-03T09:08:45;100146.97;;;11.67;41.87
45467;BME280;31212;49.734;8.490;2023-04-03T09:11:21;100078.53;;;11.60;40.74
45467;BME280;31212;49.734;8.490;2023-04-03T09:13:52;100260.63;;;12.94;41.75
45467;BME280;31212;49.734;8.490;2023-04-03T09:16:27;100215.81;;;12.55;41.77
45467;BME280;31212;49.734;8.490;2023-04-03T09:18:59;100227.66;;;15.38;39.27
45467;BME280;31212;49.734;8.490;2023-04-03T09:21:32;100104.81;;;13.88;38.95
45467;BME280;31212;49.734;8.490;2023-04-03T09:24:02;100177.38;;;14.22;38.91
45467;BME280;31212;49.734;8.490;2023-04-03T09:26:36;100105.28;;;14.15;38.41
45467;BME280;31212;49.734;8.490;2023-04-03T09:29:06;100160.56;;;12.17;40.72
45467;BME280;31212;49.734;8.490;2023-04-03T09:31:37;100192.28;;;10.98;42.48
45467;BME280;31212;49.734;8.490;2023-04-03T09:34:09;100308.78;;;9.56;44.94
45467;BME280;31212;49.734;8.490;2023-04-03T09:36:41;100460.59;;;10.62;45.79
45467;BME280;31212;49.734;8.490;2023-04-03T09:39:11;100312.47;;;11.82;42.00
45467;BME280;31212;49.734;8.490;2023-04-03T09:41:41;100333.38;;;10.48;43.64
45467;BME280;31212;49.734;8.490;2023-04-03T09:44:20;100432.16;;;11.87;43.93
45467;BME280;31212;49.734;8.490;2023-04-03T09:46:48;100223.38;;;11.40;41.31
45467;BME280;31212;49.734;8.490;2023-04-03T09:49:15;100038.28;;;9.09;42.15
45467;BME280;31212;49.734;8.490;2023-04-03T09:51:41;100197.66;;;8.64;44.17
45467;BME280;31212;49.734;8.490;2023-04-03T09:54:26;100263.19;;;7.81;45.58
45467;BME280;31212;49.734;8.490;2023-04-03T09:56:54;100318.81;;;6.96;47.61
45467;BME280;31212;49.734;8.490;2023-04-03T09:59:22;100449.63;;;6.99;48.99
45467;BME280;31212;49.734;8.490;2023-04-03T10:01:58;100490.28;;;7.09;49.32
45467;BME280;31212;49.734;8.490;2023-04-03T10:04:25;100434.41;;;7.13;47.91
45467;BME280;31212;49.734;8.490;2023-04-03T10:06:53;100471.75;;;7.32;48.58
45467;BME280;31212;49.734;8.490;2023-04-03T10:09:21;100422.31;;;8.99;45.72
45467;BME280;31212;49.734;8.490;2023-04-03T10:12:03;100351.84;;;9.37;44.47
45467;BME280;31212;49.734;8.490;2023-04-03T10:14:31;100283.59;;;9.35;43.77
45467;BME280;31212;49.734;8.490;2023-04-03T10:17:03;100194.00;;;9.94;42.03
45467;BME280;31212;49.734;8.490;2023-04-03T10:19:38;100187.16;;;10.83;40.89
45467;BME280;31212;49.734;8.490;2023-04-03T10:22:15;100167.09;;;11.31;39.86
45467;BME280;31212;49.734;8.490;2023-04-03T10:24:48;100233.63;;;9.56;43.27
45467;BME280;31212;49.734;8.490;2023-04-03T10:27:27;100306.59;;;8.90;44.89
45467;BME280;31212;49.734;8.490;2023-04-03T10:30:00;100398.44;;;9.31;45.56
45467;BME280;31212;49.734;8.490;2023-04-03T10:32:46;100445.66;;;10.11;45.38
45467;BME280;31212;49.734;8.490;2023-04-03T10:35:18;100374.06;;;10.53;43.25
45467;BME280;31212;49.734;8.490;2023-04-03T10:37:58;100377.53;;;10.65;43.48
45467;BME280;31212;49.734;8.490;2023-04-03T10:40:34;100523.00;;;12.83;43.19
45467;BME280;31212;49.734;8.490;2023-04-03T10:43:10;100089.69;;;11.81;39.16
45467;BME280;31212;49.734;8.490;2023-04-03T10:45:53;100206.75;;;11.81;40.49
45467;BME280;31212;49.734;8.490;2023-04-03T10:48:33;100265.88;;;10.97;42.90
45467;BME280;31212;49.734;8.490;2023-04-03T10:51:14;100252.91;;;11.05;42.32
45467;BME280;31212;49.734;8.490;2023-04-03T10:53:46;100269.34;;;11.11;41.83
45467;BME280;31212;49.734;8.490;2023-04-03T10:56:19;100203.31;;;9.39;43.39
45467;BME280;31212;49.734;8.490;2023-04-03T10:58:54;100311.56;;;8.65;45.62
45467;BME280;31212;49.734;8.490;2023-04-03T11:01:26;100366.28;;;8.27;46.96
45467;BME280;31212;49.734;8.490;2023-04-03T11:03:59;100396.88;;;7.90;47.60
45467;BME280;31212;49.734;8.490;2023-04-03T11:06:34;100417.28;;;7.71;47.84
45467;BME280;31212;49.734;8.490;2023-04-03T11:09:07;100428.97;;;7.48;47.98
45467;BME280;31212;49.734;8.490;2023-04-03T11:11:39;100447.47;;;7.22;48.52
45467;BME280;31212;49.734;8.490;2023-04-03T11:14:13;100458.31;;;7.02;48.86
45467;BME280;31212;49.734;8.490;2023-04-03T11:16:45;100521.09;;;7.49;49.01
45467;BME280;31212;49.734;8.490;2023-04-03T11:19:17;100452.50;;;7.66;48.20
45467;BME280;31212;49.734;8.490;2023-04-03T11:21:51;100506.53;;;8.67;46.91
45467;BME280;31212;49.734;8.490;2023-04-03T11:24:24;100370.38;;;8.08;46.34
45467;BME280;31212;49.734;8.490;2023-04-03T11:26:52;100419.72;;;8.23;46.68
45467;BME280;31212;49.734;8.490;2023-04-03T11:29:23;100419.22;;;7.86;46.91
45467;BME280;31212;49.734;8.490;2023-04-03T11:32:09;100403.50;;;7.72;47.51
45467;BME280;31212;49.734;8.490;2023-04-03T11:34:41;100467.34;;;7.78;47.68
45467;BME280;31212;49.734;8.490;2023-04-03T11:37:15;100462.28;;;7.86;47.94
45467;BME280;31212;49.734;8.490;2023-04-03T11:39:51;100532.75;;;8.31;47.91
45467;BME280;31212;49.734;8.490;2023-04-03T11:42:33;100546.84;;;9.20;47.27
45467;BME280;31212;49.734;8.490;2023-04-03T11:45:25;100279.56;;;9.92;43.13
45467;BME280;31212;49.734;8.490;2023-04-03T11:47:53;100143.69;;;9.32;41.98
45467;BME280;31212;49.734;8.490;2023-04-03T11:50:44;100247.72;;;8.66;44.02
45467;BME280;31212;49.734;8.490;2023-04-03T11:53:33;100446.44;;;8.24;47.39
45467;BME280;31212;49.734;8.490;2023-04-03T11:56:26;100438.22;;;7.88;47.58
45467;BME280;31212;49.734;8.490;2023-04-03T11:59:15;100520.16;;;7.94;49.02
45467;BME280;31212;49.734;8.490;2023-04-03T12:01:45;100504.38;;;7.79;48.46
45467;BME280;31212;49.734;8.490;2023-04-03T12:04:14;100592.03;;;8.73;48.35
45467;BME280;31212;49.734;8.490;2023-04-03T12:10:00;100479.66;;;9.39;46.22
45467;BME280;31212;49.734;8.490;2023-04-03T12:12:30;100327.03;;;8.62;45.88
45467;BME280;31212;49.734;8.490;2023-04-03T12:15:17;100338.03;;;8.42;45.93
45467;BME280;31212;49.734;8.490;2023-04-03T12:17:45;100330.59;;;7.94;46.54
45467;BME280;31212;49.734;8.490;2023-04-03T12:20:52;100381.75;;;8.21;46.72
45467;BME280;31212;49.734;8.490;2023-04-03T12:23:28;100363.25;;;8.59;46.19
45467;BME280;31212;49.734;8.490;2023-04-03T12:26:04;100314.44;;;9.01;45.00
45467;BME280;31212;49.734;8.490;2023-04-03T12:28:37;100322.88;;;8.80;45.19
45467;BME280;31212;49.734;8.490;2023-04-03T12:31:08;100255.03;;;8.21;45.20
45467;BME280;31212;49.734;8.490;2023-04-03T12:33:46;100323.28;;;8.35;45.78
45467;BME280;31212;49.734;8.490;2023-04-03T12:36:30;100324.91;;;8.25;46.11
45467;BME280;31212;49.734;8.490;2023-04-03T12:39:11;100252.81;;;8.58;44.76
45467;BME280;31212;49.734;8.490;2023-04-03T12:41:46;100296.31;;;9.01;44.50
45467;BME280;31212;49.734;8.490;2023-04-03T12:44:43;100287.41;;;10.11;43.26
45467;BME280;31212;49.734;8.490;2023-04-03T12:47:23;100077.31;;;10.13;40.73
45467;BME280;31212;49.734;8.490;2023-04-03T12:49:52;99944.88;;;10.64;39.16
45467;BME280;31212;49.734;8.490;2023-04-03T12:52:29;99968.47;;;11.61;37.92
45467;BME280;31212;49.734;8.490;2023-04-03T12:54:59;100012.13;;;12.26;37.72
45467;BME280;31212;49.734;8.490;2023-04-03T12:57:27;99978.19;;;11.41;38.62
45467;BME280;31212;49.734;8.490;2023-04-03T12:59:54;99983.53;;;11.18;39.06
45467;BME280;31212;49.734;8.490;2023-04-03T13:02:24;99847.50;;;9.40;39.28
45467;BME280;31212;49.734;8.490;2023-04-03T13:04:54;100060.03;;;9.96;40.81
45467;BME280;31212;49.734;8.490;2023-04-03T13:07:25;100100.53;;;10.96;39.72
45467;BME280;31212;49.734;8.490;2023-04-03T13:09:58;99933.78;;;10.01;39.09
45467;BME280;31212;49.734;8.490;2023-04-03T13:12:26;99951.06;;;8.92;40.97
45467;BME280;31212;49.734;8.490;2023-04-03T13:14:55;100018.38;;;8.97;41.49
45467;BME280;31212;49.734;8.490;2023-04-03T13:17:22;100117.06;;;10.16;41.35
45467;BME280;31212;49.734;8.490;2023-04-03T13:19:49;99910.50;;;9.83;39.14
45467;BME280;31212;49.734;8.490;2023-04-03T13:22:25;100043.34;;;11.04;39.40
45467;BME280;31212;49.734;8.490;2023-04-03T13:24:54;99962.34;;;9.69;40.05
45467;BME280;31212;49.734;8.490;2023-04-03T13:27:22;99943.28;;;10.10;39.27
45467;BME280;31212;49.734;8.490;2023-04-03T13:29:52;99970.16;;;11.67;37.29
45467;BME280;31212;49.734;8.490;2023-04-03T13:32:22;99816.00;;;10.53;37.59
45467;BME280;31212;49.734;8.490;2023-04-03T13:34:49;99796.50;;;9.66;37.56
45467;BME280;31212;49.734;8.490;2023-04-03T13:37:23;99793.94;;;9.55;37.95
45467;BME280;31212;49.734;8.490;2023-04-03T13:39:58;99690.47;;;9.01;37.26
45467;BME280;31212;49.734;8.490;2023-04-03T13:42:27;99852.50;;;10.10;37.52
45467;BME280;31212;49.734;8.490;2023-04-03T13:45:26;99831.44;;;10.76;36.80
45467;BME280;31212;49.734;8.490;2023-04-03T13:48:08;99841.19;;;10.26;37.22
45467;BME280;31212;49.734;8.490;2023-04-03T13:50:50;99926.66;;;10.70;38.04
45467;BME280;31212;49.734;8.490;2023-04-03T13:53:19;99864.50;;;10.45;37.37
45467;BME280;31212;49.734;8.490;2023-04-03T13:58:36;99699.84;;;11.61;34.13
45467;BME280;31212;49.734;8.490;2023-04-03T14:01:10;99722.28;;;12.34;33.68
45467;BME280;31212;49.734;8.490;2023-04-03T14:03:42;99661.44;;;12.41;33.07
45467;BME280;31212;49.734;8.490;2023-04-03T14:06:11;99650.16;;;11.83;33.74
45467;BME280;31212;49.734;8.490;2023-04-03T14:08:39;99644.56;;;10.67;33.93
45467;BME280;31212;49.734;8.490;2023-04-03T14:11:11;99726.16;;;10.38;35.08
45467;BME280;31212;49.734;8.490;2023-04-03T14:13:39;99803.25;;;11.34;34.61
45467;BME280;31212;49.734;8.490;2023-04-03T14:16:05;99663.19;;;11.78;33.30
45467;BME280;31212;49.734;8.490;2023-04-03T14:18:32;99646.66;;;11.85;32.40
45467;BME280;31212;49.734;8.490;2023-04-03T14:20:58;99720.94;;;12.08;33.00
45467;BME280;31212;49.734;8.490;2023-04-03T14:23:25;99662.91;;;12.03;32.55
45467;BME280;31212;49.734;8.490;2023-04-03T14:25:53;99554.53;;;11.41;32.80
45467;BME280;31212;49.734;8.490;2023-04-03T14:28:21;99635.91;;;12.10;32.14
45467;BME280;31212;49.734;8.490;2023-04-03T14:30:49;99615.94;;;10.75;33.45
45467;BME280;31212;49.734;8.490;2023-04-03T14:33:18;99733.34;;;11.06;33.98
45467;BME280;31212;49.734;8.490;2023-04-03T14:35:45;99597.16;;;10.53;33.69
45467;BME280;31212;49.734;8.490;2023-04-03T14:38:20;99572.22;;;10.38;33.51
45467;BME280;31212;49.734;8.490;2023-04-03T14:40:48;99653.13;;;10.79;33.12
45467;BME280;31212;49.734;8.490;2023-04-03T14:43:16;99658.22;;;10.89;33.86
45467;BME280;31212;49.734;8.490;2023-04-03T14:45:43;99615.81;;;10.87;32.89
45467;BME280;31212;49.734;8.490;2023-04-03T14:48:15;99623.78;;;10.72;33.34
45467;BME280;31212;49.734;8.490;2023-04-03T14:50:43;99630.31;;;11.08;33.18
45467;BME280;31212;49.734;8.490;2023-04-03T14:53:10;99646.31;;;10.67;32.97
45467;BME280;31212;49.734;8.490;2023-04-03T14:55:38;99587.78;;;10.32;33.13
45467;BME280;31212;49.734;8.490;2023-04-03T14:58:05;99764.09;;;11.50;33.43
45467;BME280;31212;49.734;8.490;2023-04-03T15:00:32;99651.06;;;11.10;33.27
45467;BME280;31212;49.734;8.490;2023-04-03T15:02:59;99628.94;;;10.75;33.66
45467;BME280;31212;49.734;8.490;2023-04-03T15:05:25;99705.94;;;10.77;34.76
45467;BME280;31212;49.734;8.490;2023-04-03T15:07:53;99778.50;;;10.94;34.76
45467;BME280;31212;49.734;8.490;2023-04-03T15:10:27;99718.31;;;10.46;34.31
45467;BME280;31212;49.734;8.490;2023-04-03T15:12:55;99776.25;;;10.47;35.19
45467;BME280;31212;49.734;8.490;2023-04-03T15:15:22;99704.63;;;10.16;35.05
45467;BME280;31212;49.734;8.490;2023-04-03T15:17:52;99804.13;;;10.00;36.48
45467;BME280;31212;49.734;8.490;2023-04-03T15:20:22;99856.97;;;9.65;36.94
45467;BME280;31212;49.734;8.490;2023-04-03T15:22:49;99920.91;;;9.29;38.63
45467;BME280;31212;49.734;8.490;2023-04-03T15:25:16;99897.56;;;9.05;38.28
45467;BME280;31212;49.734;8.490;2023-04-03T15:27:43;99892.31;;;8.57;39.12
45467;BME280;31212;49.734;8.490;2023-04-03T15:30:14;99926.63;;;8.19;39.63
45467;BME280;31212;49.734;8.490;2023-04-03T15:32:41;100016.38;;;8.42;40.24
45467;BME280;31212;49.734;8.490;2023-04-03T15:35:09;100071.00;;;8.93;40.26
45467;BME280;31212;49.734;8.490;2023-04-03T15:37:35;99988.16;;;8.91;38.86
45467;BME280;31212;49.734;8.490;2023-04-03T15:40:02;100047.75;;;9.01;39.80
45467;BME280;31212;49.734;8.490;2023-04-03T15:42:29;100073.59;;;8.95;40.11
45467;BME280;31212;49.734;8.490;2023-04-03T15:44:55;100045.88;;;8.69;40.04
45467;BME280;31212;49.734;8.490;2023-04-03T15:47:22;100013.91;;;8.56;39.71
45467;BME280;31212;49.734;8.490;2023-04-03T15:49:50;100065.44;;;8.23;40.65
45467;BME280;31212;49.734;8.490;2023-04-03T15:52:18;100009.91;;;7.77;40.79
45467;BME280;31212;49.734;8.490;2023-04-03T15:54:44;100060.47;;;7.50;42.03
45467;BME280;31212;49.734;8.490;2023-04-03T15:57:11;100165.50;;;7.48;42.73
45467;BME280;31212;49.734;8.490;2023-04-03T15:59:37;100171.84;;;7.76;42.94
45467;BME280;31212;49.734;8.490;2023-04-03T16:02:05;100137.47;;;7.85;41.90
45467;BME280;31212;49.734;8.490;2023-04-03T16:04:34;100134.88;;;7.82;41.92
45467;BME280;31212;49.734;8.490;2023-04-03T16:07:00;100125.50;;;7.95;42.05
45467;BME280;31212;49.734;8.490;2023-04-03T16:09:28;100095.28;;;7.84;41.80
45467;BME280;31212;49.734;8.490;2023-04-03T16:11:55;100067.66;;;7.80;41.14
45467;BME280;31212;49.734;8.490;2023-04-03T16:14:21;100197.00;;;7.91;43.05
45467;BME280;31212;49.734;8.490;2023-04-03T16:16:48;100210.06;;;8.06;42.86